createdAt,value
2018-04-08T00:03:16.605Z,31.50
2018-04-08T00:09:20.950Z,28.23
2018-04-08T00:15:25.295Z,24.00
2018-04-08T00:21:29.648Z,24.30
2018-04-08T00:27:33.990Z,26.83
2018-04-08T00:33:39.103Z,23.00
2018-04-08T00:39:43.455Z,24.20
2018-04-08T00:45:47.832Z,30.27
2018-04-08T00:51:52.162Z,22.53
2018-04-08T00:57:56.500Z,22.53
2018-04-08T01:04:00.537Z,22.17
2018-04-08T01:10:04.566Z,14.67
2018-04-08T01:16:08.594Z,16.87
2018-04-08T01:22:12.703Z,18.87
2018-04-08T01:28:17.043Z,17.10
2018-04-08T01:34:21.406Z,25.73
2018-04-08T01:40:25.757Z,17.70
2018-04-08T01:46:30.094Z,14.13
2018-04-08T01:52:34.473Z,19.50
2018-04-08T01:58:39.598Z,20.83
2018-04-08T02:04:43.949Z,17.00
2018-04-08T02:10:48.287Z,16.20
2018-04-08T02:16:52.641Z,17.80
2018-04-08T02:22:57.754Z,20.97
2018-04-08T02:29:02.105Z,18.40
2018-04-08T02:35:06.461Z,17.23
2018-04-08T02:41:10.794Z,14.83
2018-04-08T02:47:15.152Z,13.50
2018-04-08T02:53:19.502Z,15.00
2018-04-08T02:59:24.613Z,13.23
2018-04-08T03:05:28.958Z,17.47
2018-04-08T03:11:33.290Z,16.93
2018-04-08T03:17:37.631Z,14.57
2018-04-08T03:23:41.975Z,14.00
2018-04-08T03:29:46.317Z,14.90
2018-04-08T03:35:50.653Z,17.90
2018-04-08T03:41:54.996Z,13.83
2018-04-08T03:47:59.335Z,13.50
2018-04-08T03:54:03.691Z,15.27
2018-04-08T04:00:08.027Z,17.40
2018-04-08T04:06:12.351Z,16.33
2018-04-08T04:12:16.686Z,17.03
2018-04-08T04:18:38.578Z,15.43
2018-04-08T04:25:20.500Z,20.70
2018-04-08T04:31:24.842Z,16.03
2018-04-08T04:37:29.179Z,16.93
2018-04-08T04:43:33.533Z,16.80
2018-04-08T04:49:37.864Z,18.37
2018-04-08T04:55:42.201Z,12.67
2018-04-08T05:01:46.531Z,11.57
2018-04-08T05:07:50.878Z,11.27
2018-04-08T05:13:55.225Z,10.90
2018-04-08T05:19:59.554Z,15.90
2018-04-08T05:26:03.921Z,11.93
2018-04-08T05:32:08.277Z,10.80
2018-04-08T05:38:13.379Z,12.07
2018-04-08T05:44:17.724Z,18.13
2018-04-08T05:50:22.058Z,13.40
2018-04-08T05:56:26.403Z,16.60
2018-04-08T06:02:30.749Z,9.67
2018-04-08T06:08:35.078Z,13.20
2018-04-08T06:14:39.437Z,9.97
2018-04-08T06:20:43.760Z,8.50
2018-04-08T06:26:48.106Z,12.10
2018-04-08T06:32:52.471Z,11.20
2018-04-08T06:38:56.820Z,12.97
2018-04-08T06:45:01.158Z,13.13
2018-04-08T06:51:05.500Z,11.97
2018-04-08T06:57:09.859Z,13.10
2018-04-08T07:03:14.203Z,9.07
2018-04-08T07:09:18.532Z,11.93
2018-04-08T07:15:22.887Z,11.40
2018-04-08T07:21:27.229Z,9.07
2018-04-08T07:27:32.370Z,11.60
2018-04-08T07:33:36.753Z,10.73
2018-04-08T07:39:41.081Z,12.70
2018-04-08T07:45:45.417Z,11.80
2018-04-08T07:51:50.525Z,11.53
2018-04-08T07:57:54.858Z,12.17
2018-04-08T08:03:59.204Z,12.70
2018-04-08T08:10:03.548Z,10.17
2018-04-08T08:16:07.899Z,10.73
2018-04-08T08:22:12.258Z,12.40
2018-04-08T08:28:16.612Z,11.80
2018-04-08T08:34:21.712Z,9.33
2018-04-08T08:40:26.062Z,15.93
2018-04-08T08:46:31.193Z,16.13
2018-04-08T08:52:35.551Z,15.53
2018-04-08T08:58:39.896Z,14.73
2018-04-08T09:04:44.251Z,13.17
2018-04-08T09:10:48.601Z,11.43
2018-04-08T09:16:52.972Z,16.17
2018-04-08T09:23:03.739Z,14.63
2018-04-08T09:29:09.662Z,12.63
2018-04-08T09:35:14.078Z,15.27
2018-04-08T09:41:18.462Z,14.10
2018-04-08T09:47:22.905Z,14.60
2018-04-08T09:53:27.282Z,14.93
2018-04-08T09:59:31.720Z,13.53
2018-04-08T10:05:36.153Z,13.43
2018-04-08T10:11:41.307Z,13.07
2018-04-08T10:17:45.689Z,15.90
2018-04-08T10:23:50.868Z,12.07
2018-04-08T10:29:55.270Z,11.07
2018-04-08T10:35:59.626Z,17.50
2018-04-08T10:42:03.975Z,13.13
2018-04-08T10:48:09.145Z,14.43
2018-04-08T10:54:14.269Z,13.20
2018-04-08T11:00:18.632Z,15.60
2018-04-08T11:06:23.754Z,14.63
2018-04-08T11:12:28.109Z,19.50
2018-04-08T11:18:32.447Z,16.07
2018-04-08T11:24:36.814Z,17.83
2018-04-08T11:30:41.168Z,14.73
2018-04-08T11:36:46.296Z,14.00
2018-04-08T11:42:50.652Z,15.70
2018-04-08T11:48:55.767Z,16.23
2018-04-08T11:55:00.965Z,15.70
2018-04-08T12:01:05.343Z,13.03
2018-04-08T12:07:09.718Z,15.50
2018-04-08T12:13:14.902Z,19.43
2018-04-08T12:19:19.241Z,15.53
2018-04-08T12:25:23.598Z,15.63
2018-04-08T12:31:28.723Z,13.73
2018-04-08T12:37:33.073Z,12.23
2018-04-08T12:43:37.422Z,13.60
2018-04-08T12:49:41.805Z,16.00
2018-04-08T12:55:46.923Z,20.83
2018-04-08T13:01:51.277Z,15.57
2018-04-08T13:07:55.633Z,12.67
2018-04-08T13:14:00.762Z,13.70
2018-04-08T13:20:05.106Z,13.80
2018-04-08T13:26:09.467Z,10.20
2018-04-08T13:32:13.818Z,13.40
2018-04-08T13:38:18.940Z,7.47
2018-04-08T13:44:23.274Z,6.50
2018-04-08T13:50:27.600Z,15.13
2018-04-08T13:56:31.946Z,19.43
2018-04-08T14:02:36.292Z,11.60
2018-04-08T14:08:40.646Z,8.27
2018-04-08T14:14:45.021Z,9.90
2018-04-08T14:20:50.179Z,9.43
2018-04-08T14:26:54.523Z,10.07
2018-04-08T14:32:59.641Z,8.23
2018-04-08T14:39:03.985Z,9.60
2018-04-08T14:45:08.362Z,10.40
2018-04-08T14:51:13.541Z,8.70
2018-04-08T14:57:17.949Z,4.90
2018-04-08T15:03:22.376Z,9.30
2018-04-08T15:09:26.765Z,9.73
2018-04-08T15:15:31.183Z,8.10
2018-04-08T15:21:36.356Z,12.73
2018-04-08T15:27:40.765Z,13.63
2018-04-08T15:33:45.166Z,11.77
2018-04-08T15:39:49.569Z,10.47
2018-04-08T15:45:53.926Z,14.40
2018-04-08T15:51:58.267Z,7.37
2018-04-08T15:58:02.630Z,12.27
2018-04-08T16:04:06.972Z,6.20
2018-04-08T16:10:11.314Z,15.53
2018-04-08T16:16:15.664Z,11.50
2018-04-08T16:22:20.018Z,6.83
2018-04-08T16:28:24.364Z,4.80
2018-04-08T16:34:28.707Z,5.77
2018-04-08T16:40:33.046Z,13.63
2018-04-08T16:46:37.395Z,5.07
2018-04-08T16:52:41.724Z,7.60
2018-04-08T16:58:46.068Z,12.20
2018-04-08T17:04:50.406Z,7.57
2018-04-08T17:10:54.819Z,12.07
2018-04-08T17:16:59.163Z,20.60
2018-04-08T17:23:03.523Z,19.20
2018-04-08T17:29:07.871Z,16.30
2018-04-08T17:35:12.218Z,22.47
2018-04-08T17:41:16.591Z,21.30
2018-04-08T17:47:21.719Z,23.47
2018-04-08T17:53:26.061Z,29.00
2018-04-08T17:59:30.437Z,25.03
2018-04-08T18:05:35.568Z,28.50
2018-04-08T18:11:39.917Z,30.80
2018-04-08T18:17:44.255Z,30.00
2018-04-08T18:23:48.635Z,27.80
2018-04-08T18:29:53.727Z,26.17
2018-04-08T18:35:58.078Z,26.63
2018-04-08T18:42:02.430Z,26.07
2018-04-08T18:48:06.775Z,30.27
2018-04-08T18:54:11.132Z,26.40
2018-04-08T19:00:16.249Z,25.80
2018-04-08T19:06:20.598Z,26.10
2018-04-08T19:12:24.982Z,33.27
2018-04-08T19:18:29.330Z,24.17
2018-04-08T19:24:34.436Z,26.93
2018-04-08T19:30:38.789Z,25.00
2018-04-08T19:36:43.154Z,27.60
2018-04-08T19:42:48.269Z,26.80
2018-04-08T19:48:52.663Z,27.93
2018-04-08T19:54:57.797Z,25.30
2018-04-08T20:01:02.138Z,25.70
2018-04-08T20:07:06.478Z,25.17
2018-04-08T20:13:10.833Z,27.53
2018-04-08T20:19:15.182Z,26.93
2018-04-08T20:25:20.290Z,32.27
2018-04-08T20:31:24.647Z,25.93
2018-04-08T20:37:29.211Z,25.57
2018-04-08T20:43:33.582Z,29.47
2018-04-08T20:49:37.931Z,27.33
2018-04-08T20:55:42.300Z,37.20
2018-04-08T21:01:46.655Z,33.00
2018-04-08T21:07:51.019Z,33.90
2018-04-08T21:13:55.437Z,30.87
2018-04-08T21:19:59.791Z,32.77
2018-04-08T21:26:04.153Z,31.43
2018-04-08T21:32:08.494Z,33.03
2018-04-08T21:38:13.608Z,30.70
2018-04-08T21:44:17.956Z,35.00
2018-04-08T21:50:22.302Z,31.37
2018-04-08T21:56:26.659Z,31.07
2018-04-08T22:02:31.009Z,33.23
2018-04-08T22:08:36.137Z,30.43
2018-04-08T22:14:40.496Z,33.67
2018-04-08T22:20:44.836Z,34.20
2018-04-08T22:26:49.177Z,36.90
2018-04-08T22:32:53.538Z,33.47
2018-04-08T22:38:58.638Z,34.80
2018-04-08T22:45:02.989Z,34.23
2018-04-08T22:51:07.339Z,37.37
2018-04-08T22:57:11.686Z,41.23
2018-04-08T23:03:16.031Z,41.20
2018-04-08T23:09:20.382Z,44.90
2018-04-08T23:15:24.742Z,42.37
2018-04-08T23:21:29.865Z,40.83
2018-04-08T23:27:34.231Z,39.17
2018-04-08T23:33:38.573Z,47.40
2018-04-08T23:39:42.930Z,43.80
2018-04-08T23:45:48.044Z,48.00
2018-04-08T23:51:52.394Z,44.53
2018-04-08T23:57:56.739Z,45.97
